This is the latest recevied weather packets stored in our database for station/object K0QED. If no packets are shown the sender has not sent any weather packets the latest 10 day(s).
| Time | Temp. | Humidity | Pressure | Rain* | Wind** | Luminosity | Snow |
|---|---|---|---|---|---|---|---|
| 1788445260 | 19.44° C | 41% | 1024.7 hPa | 0 mm | - | 34 W/m² | - |
| 1788444955 | 19.44° C | 42% | 1024.9 hPa | 0 mm | - | 28 W/m² | - |
| 1788444650 | 18.89° C | 41% | 1024.6 hPa | 0 mm | - | 21 W/m² | - |
| 1788444346 | 18.89° C | 43% | 1024.6 hPa | 0 mm | - | 21 W/m² | - |
| 1788444041 | 17.78° C | 46% | 1024.6 hPa | 0 mm | - | 21 W/m² | - |
| 1788443736 | 17.22° C | 48% | 1024.2 hPa | 0 mm | - | 20 W/m² | - |
| 1788443431 | 15.56° C | 52% | 1024.2 hPa | 0 mm | - | 19 W/m² | - |
| 1788443131 | 15.56° C | 55% | 1024.5 hPa | 0 mm | - | 19 W/m² | - |
| 1788442827 | 15° C | 54% | 1024.6 hPa | 0 mm | - | 18 W/m² | - |
| 1788442524 | 15° C | 55% | 1024.4 hPa | 0 mm | - | 17 W/m² | - |
| 1788442220 | 14.44° C | 54% | 1024.1 hPa | 0 mm | - | 16 W/m² | - |
| 1788441914 | 14.44° C | 54% | 1024.1 hPa | 0 mm | - | 16 W/m² | - |
| 1788441609 | 13.89° C | 55% | 1024.2 hPa | 0 mm | - | 15 W/m² | - |
| 1788441305 | 14.44° C | 54% | 1024.2 hPa | 0 mm | - | 14 W/m² | - |
| 1788441003 | 13.89° C | 53% | 1024 hPa | 0 mm | - | 12 W/m² | - |
| 1788440698 | 13.89° C | 54% | 1024 hPa | 0 mm | - | 11 W/m² | - |
| 1788440397 | 13.89° C | 53% | 1024 hPa | 0 mm | - | 11 W/m² | - |
| 1788440096 | 13.89° C | 52% | 1024.1 hPa | 0 mm | - | 9 W/m² | - |
| 1788439791 | 13.89° C | 50% | 1023.9 hPa | 0 mm | - | 7 W/m² | - |
| 1788439486 | 11.67° C | 56% | 1023.6 hPa | 0 mm | - | 6 W/m² | - |
| 1788439185 | 12.22° C | 56% | 1023.6 hPa | 0 mm | - | 4 W/m² | - |
| 1788438880 | 12.22° C | 54% | 1023.5 hPa | 0 mm | - | 3 W/m² | - |
| 1788438578 | 12.22° C | 56% | 1023.7 hPa | 0 mm | - | 0 W/m² | - |
| 1788438273 | 12.78° C | 54% | 1023.9 hPa | 0 mm | - | 0 W/m² | - |
| 1788437972 | 12.78° C | 53% | 1023.6 hPa | 0 mm | - | 0 W/m² | - |
* Rain latest hour (hover to see other rain measurements)
** Current wind speed in m/s (hover to see current wind gust speed)